AFR72KD LFBO-LFPG

Flight info

Callsign AFR72KD
Flight time 1h 1m
Altitude 30000
Route FISTO DCT POI DCT PEPAX UT182 KEPER
Aircraft A320/M-SDE3FGHIRWY/LB1

Departure

Time 2026-05-08 19:03
Airport Toulouse-Blagnac Airport (LFBO)

Arrival

Time 2026-05-08 20:05
Airport Charles de Gaulle International Airport (LFPG)
Time Latitude Longitude Altitude Speed Heading
2026-05-08 18:39 43.62978 1.37315 489 ft 0 kts 44°
2026-05-08 18:56 43.62975 1.37311 488 ft 2 kts 44°
2026-05-08 18:56 43.62963 1.37296 483 ft 2 kts 44°
2026-05-08 18:56 43.62952 1.37281 487 ft 2 kts 44°
2026-05-08 18:57 43.62940 1.37265 485 ft 2 kts 44°
2026-05-08 18:57 43.62932 1.37255 485 ft 2 kts 36°
2026-05-08 18:57 43.62912 1.37246 485 ft 2 kts 346°
2026-05-08 18:57 43.62898 1.37254 486 ft 2 kts 323°
2026-05-08 18:58 43.62890 1.37263 485 ft 0 kts 323°
2026-05-08 18:59 43.62897 1.37254 486 ft 6 kts 316°
2026-05-08 18:59 43.62882 1.37156 486 ft 13 kts 234°
2026-05-08 18:59 43.62836 1.37029 494 ft 17 kts 283°
2026-05-08 19:00 43.62930 1.36912 492 ft 20 kts 322°
2026-05-08 19:00 43.63052 1.36784 489 ft 24 kts 323°
2026-05-08 19:00 43.63196 1.36635 486 ft 27 kts 323°
2026-05-08 19:00 43.63307 1.36521 493 ft 21 kts 323°
2026-05-08 19:01 43.63418 1.36406 489 ft 19 kts 323°
2026-05-08 19:01 43.63531 1.36288 485 ft 22 kts 323°
2026-05-08 19:01 43.63645 1.36169 483 ft 12 kts 323°
2026-05-08 19:01 43.63714 1.36097 490 ft 12 kts 323°
2026-05-08 19:02 43.63780 1.36028 488 ft 11 kts 323°
2026-05-08 19:02 43.63814 1.35940 491 ft 12 kts 259°
2026-05-08 19:02 43.63762 1.35834 488 ft 15 kts 233°
2026-05-08 19:02 43.63703 1.35796 487 ft 10 kts 151°
2026-05-08 19:03 43.63622 1.35883 486 ft 30 kts 141°
2026-05-08 19:03 43.63235 1.36283 488 ft 104 kts 143°
2026-05-08 19:03 43.62495 1.37044 514 ft 157 kts 144°
2026-05-08 19:03 43.61626 1.37960 1215 ft 156 kts 143°
2026-05-08 19:04 43.60778 1.38848 2021 ft 154 kts 140°
2026-05-08 19:04 43.59931 1.39738 2778 ft 152 kts 143°
2026-05-08 19:04 43.59067 1.40586 3416 ft 154 kts 147°
2026-05-08 19:04 43.58141 1.41444 3865 ft 171 kts 147°
2026-05-08 19:05 43.57079 1.42382 4223 ft 192 kts 149°
2026-05-08 19:05 43.55767 1.43081 4494 ft 218 kts 170°
2026-05-08 19:05 43.54157 1.43038 4828 ft 246 kts 196°
2026-05-08 19:05 43.52595 1.41884 5343 ft 266 kts 222°
2026-05-08 19:06 43.51526 1.39777 6176 ft 275 kts 249°
2026-05-08 19:06 43.51285 1.37157 7043 ft 283 kts 276°
2026-05-08 19:06 43.52019 1.34648 7971 ft 289 kts 306°
2026-05-08 19:06 43.53566 1.32949 8882 ft 295 kts 336°
2026-05-08 19:07 43.55593 1.32352 9719 ft 302 kts 353°
2026-05-08 19:07 43.57724 1.32072 10410 ft 315 kts 354°
2026-05-08 19:07 43.59964 1.31783 10805 ft 335 kts 354°
2026-05-08 19:07 43.62317 1.31479 11501 ft 343 kts 354°
2026-05-08 19:08 43.64712 1.31169 12331 ft 347 kts 354°
2026-05-08 19:08 43.67123 1.30901 13182 ft 350 kts 356°
2026-05-08 19:08 43.69569 1.30672 13939 ft 354 kts 355°
2026-05-08 19:08 43.72020 1.30466 14618 ft 358 kts 355°
2026-05-08 19:09 43.74502 1.30255 15297 ft 362 kts 355°
2026-05-08 19:09 43.77025 1.30028 15979 ft 366 kts 354°
2026-05-08 19:09 43.79545 1.29785 16636 ft 370 kts 354°
2026-05-08 19:09 43.82123 1.29523 17326 ft 373 kts 353°
2026-05-08 19:10 43.84727 1.29251 18001 ft 378 kts 353°
2026-05-08 19:10 43.87359 1.28972 18615 ft 382 kts 353°
2026-05-08 19:10 43.90019 1.28689 19197 ft 385 kts 353°
2026-05-08 19:10 43.92706 1.28401 19777 ft 389 kts 353°
2026-05-08 19:11 43.95412 1.28112 20363 ft 392 kts 354°
2026-05-08 19:11 43.98139 1.27822 20937 ft 395 kts 354°
2026-05-08 19:11 44.00856 1.27532 21488 ft 399 kts 354°
2026-05-08 19:11 44.03633 1.27239 22049 ft 402 kts 354°
2026-05-08 19:12 44.06437 1.26944 22590 ft 406 kts 355°
2026-05-08 19:12 44.09260 1.26649 23139 ft 409 kts 355°
2026-05-08 19:12 44.12110 1.26352 23660 ft 412 kts 355°
2026-05-08 19:12 44.14974 1.26053 24108 ft 415 kts 355°
2026-05-08 19:13 44.17865 1.25750 24548 ft 418 kts 355°
2026-05-08 19:13 44.20775 1.25440 24983 ft 421 kts 355°
2026-05-08 19:13 44.23707 1.25125 25415 ft 424 kts 355°
2026-05-08 19:13 44.26615 1.24811 25832 ft 427 kts 355°
2026-05-08 19:14 44.29589 1.24493 26253 ft 430 kts 355°
2026-05-08 19:14 44.32577 1.24174 26667 ft 433 kts 355°
2026-05-08 19:14 44.35591 1.23855 27078 ft 436 kts 355°
2026-05-08 19:14 44.38621 1.23534 27477 ft 439 kts 355°
2026-05-08 19:15 44.41678 1.23206 27871 ft 442 kts 356°
2026-05-08 19:15 44.44748 1.22853 28276 ft 444 kts 354°
2026-05-08 19:15 44.47790 1.22033 28655 ft 447 kts 344°
2026-05-08 19:15 44.50784 1.20768 29032 ft 450 kts 343°
2026-05-08 19:16 44.53752 1.19507 29404 ft 453 kts 343°
2026-05-08 19:16 44.56781 1.18226 29765 ft 456 kts 343°
2026-05-08 19:16 44.59832 1.16935 30123 ft 459 kts 343°
2026-05-08 19:16 44.62902 1.15636 30416 ft 462 kts 343°
2026-05-08 19:17 44.65991 1.14329 30730 ft 465 kts 343°
2026-05-08 19:17 44.69098 1.13011 31019 ft 468 kts 343°
2026-05-08 19:17 44.72227 1.11681 31306 ft 471 kts 343°
2026-05-08 19:17 44.75370 1.10341 31643 ft 472 kts 343°
2026-05-08 19:18 44.78513 1.08999 31896 ft 473 kts 343°
2026-05-08 19:18 44.84707 1.06357 31946 ft 471 kts 343°
2026-05-08 19:19 44.91106 1.03625 31949 ft 487 kts 343°
2026-05-08 19:19 44.97613 1.00837 31948 ft 490 kts 343°
2026-05-08 19:20 45.04130 0.98031 31952 ft 490 kts 343°
2026-05-08 19:20 45.10597 0.95240 31951 ft 490 kts 343°
2026-05-08 19:21 45.17117 0.92420 31944 ft 489 kts 343°
2026-05-08 19:21 45.23623 0.89598 31943 ft 489 kts 343°
2026-05-08 19:22 45.30132 0.86784 31952 ft 488 kts 343°
2026-05-08 19:22 45.36627 0.83964 31958 ft 488 kts 343°
2026-05-08 19:23 45.43077 0.81158 31966 ft 488 kts 343°
2026-05-08 19:23 45.49563 0.78322 31973 ft 487 kts 343°
2026-05-08 19:24 45.56040 0.75478 31987 ft 487 kts 344°
2026-05-08 19:24 45.62515 0.72636 31977 ft 487 kts 344°
2026-05-08 19:25 45.68945 0.69805 31980 ft 486 kts 343°
2026-05-08 19:25 45.75409 0.66943 31978 ft 486 kts 343°
2026-05-08 19:26 45.81864 0.64095 31976 ft 485 kts 343°
2026-05-08 19:26 45.88314 0.61240 31973 ft 484 kts 343°
2026-05-08 19:27 45.94745 0.58629 31970 ft 482 kts 354°
2026-05-08 19:27 46.01409 0.57782 31976 ft 481 kts 356°
2026-05-08 19:28 46.08072 0.57029 31974 ft 480 kts 357°
2026-05-08 19:28 46.14731 0.56277 31976 ft 480 kts 356°
2026-05-08 19:29 46.21335 0.55514 31976 ft 479 kts 356°
2026-05-08 19:29 46.27972 0.54738 31976 ft 478 kts 356°
2026-05-08 19:30 46.34604 0.53959 31977 ft 478 kts 356°
2026-05-08 19:30 46.41233 0.53184 31981 ft 478 kts 356°
2026-05-08 19:31 46.47810 0.52414 31979 ft 477 kts 356°
2026-05-08 19:31 46.54422 0.51639 31980 ft 477 kts 356°
2026-05-08 19:32 46.61031 0.50861 31981 ft 476 kts 356°
2026-05-08 19:32 46.67630 0.50078 31984 ft 475 kts 356°
2026-05-08 19:33 46.74222 0.49297 31978 ft 475 kts 356°
2026-05-08 19:33 46.80757 0.48516 31972 ft 475 kts 356°
2026-05-08 19:34 46.87345 0.47727 31977 ft 475 kts 356°
2026-05-08 19:34 46.93927 0.46946 31975 ft 475 kts 356°
2026-05-08 19:35 47.00509 0.46165 31975 ft 474 kts 355°
2026-05-08 19:35 47.07043 0.45383 31987 ft 474 kts 355°
2026-05-08 19:36 47.13607 0.44865 31779 ft 472 kts
2026-05-08 19:36 47.16764 0.46090 31525 ft 469 kts 24°
2026-05-08 19:36 47.19770 0.47989 31279 ft 470 kts 24°
2026-05-08 19:36 47.22770 0.49890 31040 ft 470 kts 24°
2026-05-08 19:37 47.25770 0.51784 30794 ft 470 kts 24°
2026-05-08 19:37 47.28773 0.53677 30552 ft 469 kts 24°
2026-05-08 19:37 47.31739 0.55541 30316 ft 469 kts 24°
2026-05-08 19:37 47.34739 0.57425 30077 ft 469 kts 24°
2026-05-08 19:38 47.37746 0.59317 29790 ft 469 kts 24°
2026-05-08 19:38 47.40749 0.61210 29503 ft 470 kts 24°
2026-05-08 19:38 47.43757 0.63113 29244 ft 471 kts 24°
2026-05-08 19:38 47.46767 0.65027 28962 ft 471 kts 24°
2026-05-08 19:39 47.49783 0.66944 28681 ft 472 kts 24°
2026-05-08 19:39 47.52802 0.68861 28410 ft 473 kts 24°
2026-05-08 19:39 47.55823 0.70778 28145 ft 473 kts 24°
2026-05-08 19:39 47.58855 0.72696 27876 ft 474 kts 24°
2026-05-08 19:40 47.61886 0.74618 27611 ft 474 kts 24°
2026-05-08 19:40 47.64878 0.76527 27359 ft 475 kts 24°
2026-05-08 19:40 47.67911 0.78470 27095 ft 475 kts 24°
2026-05-08 19:40 47.70951 0.80419 26846 ft 476 kts 24°
2026-05-08 19:41 47.73992 0.82367 26594 ft 477 kts 24°
2026-05-08 19:41 47.77041 0.84320 26333 ft 477 kts 23°
2026-05-08 19:41 47.80086 0.86274 26093 ft 477 kts 23°
2026-05-08 19:41 47.83123 0.88228 25848 ft 476 kts 23°
2026-05-08 19:42 47.86163 0.90186 25465 ft 474 kts 23°
2026-05-08 19:42 47.89192 0.92135 24336 ft 475 kts 24°
2026-05-08 19:42 47.92219 0.94082 23386 ft 472 kts 24°
2026-05-08 19:42 47.95215 0.96012 22466 ft 466 kts 24°
2026-05-08 19:43 47.98173 0.97922 21654 ft 460 kts 23°
2026-05-08 19:43 48.01098 0.99814 20858 ft 456 kts 23°
2026-05-08 19:43 48.03953 1.01664 20085 ft 451 kts 23°
2026-05-08 19:43 48.06823 1.03526 19323 ft 448 kts 22°
2026-05-08 19:44 48.09666 1.05375 18592 ft 444 kts 22°
2026-05-08 19:44 48.12491 1.07218 17821 ft 441 kts 22°
2026-05-08 19:44 48.15281 1.09040 17127 ft 434 kts 22°
2026-05-08 19:44 48.18030 1.10839 16516 ft 428 kts 22°
2026-05-08 19:45 48.20733 1.12611 15890 ft 421 kts 22°
2026-05-08 19:45 48.23402 1.14356 15297 ft 415 kts 22°
2026-05-08 19:45 48.26036 1.16077 14710 ft 410 kts 22°
2026-05-08 19:45 48.28628 1.17776 14123 ft 405 kts 22°
2026-05-08 19:46 48.31173 1.19545 13490 ft 402 kts 29°
2026-05-08 19:46 48.33404 1.21973 13181 ft 402 kts 37°
2026-05-08 19:46 48.37795 1.27146 12666 ft 399 kts 37°
2026-05-08 19:47 48.39972 1.29725 12402 ft 398 kts 37°
2026-05-08 19:47 48.42133 1.32289 12077 ft 390 kts 37°
2026-05-08 19:47 48.44211 1.34763 11963 ft 373 kts 37°
2026-05-08 19:47 48.46198 1.37132 11825 ft 356 kts 37°
2026-05-08 19:48 48.48101 1.39402 11706 ft 341 kts 37°
2026-05-08 19:48 48.49316 1.40851 11627 ft 332 kts 37°
2026-05-08 19:48 48.51089 1.42969 11500 ft 320 kts 37°
2026-05-08 19:48 48.52801 1.45021 11369 ft 309 kts 37°
2026-05-08 19:49 48.54468 1.47017 11141 ft 303 kts 37°
2026-05-08 19:49 48.56113 1.48984 11068 ft 300 kts 37°
2026-05-08 19:49 48.57803 1.50810 10999 ft 299 kts 28°
2026-05-08 19:49 48.59654 1.52225 10789 ft 297 kts 24°
2026-05-08 19:50 48.61509 1.53589 10591 ft 296 kts 24°
2026-05-08 19:50 48.63332 1.54928 10384 ft 293 kts 24°
2026-05-08 19:50 48.65135 1.56233 10258 ft 282 kts 24°
2026-05-08 19:50 48.66879 1.57482 10147 ft 272 kts 24°
2026-05-08 19:51 48.68562 1.58690 10012 ft 263 kts 24°
2026-05-08 19:51 48.70193 1.59864 9819 ft 257 kts 24°
2026-05-08 19:51 48.71802 1.61021 9516 ft 255 kts 24°
2026-05-08 19:51 48.73399 1.62165 9195 ft 253 kts 24°
2026-05-08 19:52 48.74815 1.63174 8898 ft 252 kts 24°
2026-05-08 19:52 48.76395 1.64295 8755 ft 251 kts 24°
2026-05-08 19:52 48.77983 1.65418 8620 ft 252 kts 24°
2026-05-08 19:52 48.79034 1.66162 8534 ft 252 kts 24°
2026-05-08 19:53 48.81123 1.67637 8170 ft 249 kts 24°
2026-05-08 19:53 48.82692 1.68739 7922 ft 249 kts 24°
2026-05-08 19:53 48.84265 1.69844 7669 ft 248 kts 24°
2026-05-08 19:53 48.85829 1.70937 7437 ft 247 kts 24°
2026-05-08 19:54 48.87389 1.72023 7263 ft 247 kts 24°
2026-05-08 19:54 48.88953 1.73113 7091 ft 247 kts 24°
2026-05-08 19:54 48.89987 1.73830 6975 ft 247 kts 24°
2026-05-08 19:54 48.91541 1.74917 6791 ft 246 kts 28°
2026-05-08 19:55 48.92805 1.76614 6626 ft 245 kts 59°
2026-05-08 19:55 48.93513 1.78961 6450 ft 245 kts 70°
2026-05-08 19:55 48.94014 1.81417 6275 ft 243 kts 77°
2026-05-08 19:55 48.94438 1.83900 6091 ft 241 kts 77°
2026-05-08 19:56 48.94855 1.86367 5920 ft 240 kts 77°
2026-05-08 19:56 48.95264 1.88822 5833 ft 239 kts 78°
2026-05-08 19:56 48.95521 1.91310 5756 ft 238 kts 85°
2026-05-08 19:56 48.95678 1.93810 5677 ft 237 kts 86°
2026-05-08 19:57 48.95829 1.96299 5605 ft 236 kts 85°
2026-05-08 19:57 48.95987 1.98786 5525 ft 236 kts 84°
2026-05-08 19:57 48.96168 2.01260 5441 ft 235 kts 85°
2026-05-08 19:57 48.96322 2.03735 5364 ft 234 kts 86°
2026-05-08 19:58 48.96466 2.06202 5291 ft 234 kts 85°
2026-05-08 19:58 48.96609 2.08657 5218 ft 233 kts 86°
2026-05-08 19:58 48.96751 2.11114 5127 ft 233 kts 86°
2026-05-08 19:58 48.96891 2.13529 5023 ft 223 kts 86°
2026-05-08 19:59 48.97006 2.15518 4982 ft 212 kts 85°
2026-05-08 19:59 48.97129 2.17669 4980 ft 199 kts 85°
2026-05-08 19:59 48.97248 2.19751 4980 ft 189 kts 85°
2026-05-08 19:59 48.97359 2.21699 4810 ft 188 kts 85°
2026-05-08 20:00 48.97471 2.23672 4561 ft 187 kts 86°
2026-05-08 20:00 48.97580 2.25590 4322 ft 186 kts 85°
2026-05-08 20:00 48.97690 2.27545 4072 ft 185 kts 85°
2026-05-08 20:00 48.97799 2.29485 3825 ft 184 kts 85°
2026-05-08 20:01 48.97908 2.31421 3583 ft 183 kts 85°
2026-05-08 20:01 48.98016 2.33345 3343 ft 182 kts 85°
2026-05-08 20:01 48.98123 2.35257 3099 ft 181 kts 85°
2026-05-08 20:01 48.98229 2.37160 2856 ft 180 kts 85°
2026-05-08 20:02 48.98332 2.39029 2620 ft 179 kts 84°
2026-05-08 20:02 48.98438 2.40937 2376 ft 178 kts 85°
2026-05-08 20:02 48.98538 2.42754 2141 ft 172 kts 84°
2026-05-08 20:02 48.98634 2.44497 1908 ft 159 kts 84°
2026-05-08 20:03 48.98723 2.46125 1723 ft 147 kts 84°
2026-05-08 20:03 48.98803 2.47595 1523 ft 133 kts 85°
2026-05-08 20:03 48.98880 2.48966 1321 ft 129 kts 84°
2026-05-08 20:03 48.98955 2.50320 1180 ft 130 kts 84°
2026-05-08 20:04 48.99030 2.51691 1015 ft 130 kts 84°
2026-05-08 20:04 48.99103 2.53073 878 ft 132 kts 83°
2026-05-08 20:04 48.99180 2.54481 701 ft 134 kts 84°
2026-05-08 20:04 48.99257 2.55900 492 ft 134 kts 83°
2026-05-08 20:05 48.99332 2.57281 355 ft 125 kts 84°
2026-05-08 20:05 48.99388 2.58350 353 ft 76 kts 85°
2026-05-08 20:05 48.99418 2.58909 352 ft 41 kts 84°
2026-05-08 20:05 48.99460 2.59223 357 ft 26 kts 69°
2026-05-08 20:06 48.99521 2.59435 360 ft 18 kts 65°
2026-05-08 20:06 48.99572 2.59603 362 ft 8 kts 64°
2026-05-08 20:06 48.99601 2.59673 357 ft 8 kts 44°
2026-05-08 20:06 48.99646 2.59691 360 ft 2 kts 358°
2026-05-08 20:07 48.99655 2.59690 358 ft 1 kts 358°
2026-05-08 20:07 48.99665 2.59690 357 ft 2 kts 358°
2026-05-08 20:07 48.99675 2.59689 354 ft 0 kts 357°
2026-05-08 20:07 48.99676 2.59689 354 ft 0 kts 356°
2026-05-08 20:08 48.99681 2.59688 354 ft 1 kts 356°
2026-05-08 20:08 48.99726 2.59684 357 ft 12 kts 355°
2026-05-08 20:08 48.99813 2.59673 355 ft 13 kts 355°
2026-05-08 20:08 48.99908 2.59661 362 ft 13 kts 355°
2026-05-08 20:09 49.00010 2.59648 357 ft 17 kts 355°
2026-05-08 20:09 49.00140 2.59633 354 ft 21 kts 354°
2026-05-08 20:09 49.00285 2.59615 359 ft 16 kts 355°
2026-05-08 20:09 49.00412 2.59599 358 ft 20 kts 355°
2026-05-08 20:10 49.00561 2.59580 354 ft 19 kts 355°
2026-05-08 20:10 49.00703 2.59562 354 ft 22 kts 355°
2026-05-08 20:10 49.00852 2.59544 354 ft 18 kts 354°
2026-05-08 20:10 49.00965 2.59530 354 ft 13 kts 349°
2026-05-08 20:11 49.01002 2.59416 358 ft 14 kts 265°
2026-05-08 20:11 49.00992 2.59278 354 ft 11 kts 264°
2026-05-08 20:11 49.00986 2.59154 354 ft 13 kts 265°
2026-05-08 20:11 49.00969 2.59011 354 ft 15 kts 252°
2026-05-08 20:12 49.00909 2.58897 359 ft 15 kts 193°
2026-05-08 20:12 49.00852 2.58784 360 ft 15 kts 265°
2026-05-08 20:12 49.00844 2.58610 354 ft 17 kts 266°
2026-05-08 20:12 49.00835 2.58453 360 ft 14 kts 265°
2026-05-08 20:13 49.00831 2.58325 354 ft 11 kts 266°
2026-05-08 20:13 49.00831 2.58319 354 ft 0 kts 266°
2026-05-08 20:14 49.00830 2.58319 354 ft 0 kts 266°
2026-05-08 20:14 49.00830 2.58308 354 ft 4 kts 265°
2026-05-08 20:14 49.00825 2.58232 354 ft 9 kts 265°
2026-05-08 20:14 49.00818 2.58125 354 ft 9 kts 264°
2026-05-08 20:15 49.00817 2.58117 354 ft 0 kts 264°
2026-05-08 20:15 49.00817 2.58114 354 ft 0 kts 264°
2026-05-08 20:15 49.00817 2.58113 354 ft 0 kts 264°
2026-05-08 20:16 49.00815 2.58076 354 ft 8 kts 265°
2026-05-08 20:16 49.00777 2.58016 361 ft 9 kts 217°
2026-05-08 20:16 49.00744 2.57967 357 ft 6 kts 224°
2026-05-08 20:17 49.00740 2.57962 357 ft 0 kts 224°